Terminal Aerodrome Forecast
Issued by NWS

Home | Current Version | Previous Version | Text Only | Print | Product List | Glossary On
Versions: 1 2 3 4 5 6 7 8 9 10 11 12 13 14 15 16 17 18 19 20 21 22 23 24 25 26 27 28 29 30 31 32
000
FTUS44 KOUN 062353 RRA
TAFLAW
TAF
KLAW 062353Z 0700/0724 16018G28KT P6SM SCT035 OVC050
      TEMPO 0700/0704 4SM +TSRA BKN025CB
     FM070400 16012G19KT P6SM OVC030
      TEMPO 0704/0708 6SM -TSRA BKN020CB
     FM070800 15012G18KT P6SM OVC010
     FM071800 14014G20KT P6SM BKN040 PROB30 0718/0724 5SM TSRA
      BKN015CB=

USA.gov is the U.S. government's official web portal to all federal, state and local government web resources and services.